createdAt,value
2024-01-14T00:02:06.864Z,12.40
2024-01-14T00:04:34.946Z,14.30
2024-01-14T00:07:02.758Z,11.87
2024-01-14T00:09:30.634Z,11.50
2024-01-14T00:11:58.522Z,12.43
2024-01-14T00:14:27.940Z,12.70
2024-01-14T00:16:55.710Z,12.73
2024-01-14T00:19:23.686Z,11.93
2024-01-14T00:21:51.671Z,12.23
2024-01-14T00:24:19.471Z,10.33
2024-01-14T00:26:47.620Z,10.60
2024-01-14T00:29:15.378Z,10.40
2024-01-14T00:31:44.567Z,10.80
2024-01-14T00:34:12.383Z,10.60
2024-01-14T00:36:41.050Z,10.27
2024-01-14T00:39:09.115Z,11.60
2024-01-14T00:41:37.099Z,9.40
2024-01-14T00:44:05.142Z,9.83
2024-01-14T00:46:33.375Z,9.33
2024-01-14T00:49:02.599Z,10.13
2024-01-14T00:51:30.917Z,12.83
2024-01-14T00:53:58.919Z,10.20
2024-01-14T00:56:26.726Z,9.73
2024-01-14T00:58:54.547Z,10.77
2024-01-14T01:01:22.651Z,9.90
2024-01-14T01:03:50.506Z,11.97
2024-01-14T01:06:19.677Z,11.67
2024-01-14T01:08:47.582Z,12.30
2024-01-14T01:11:17.434Z,11.53
2024-01-14T01:13:45.337Z,11.37
2024-01-14T01:16:13.149Z,12.67
2024-01-14T01:18:41.132Z,10.20
2024-01-14T01:21:09.043Z,12.10
2024-01-14T01:23:38.411Z,13.27
2024-01-14T01:26:06.685Z,13.77
2024-01-14T01:28:34.484Z,15.50
2024-01-14T01:31:02.601Z,13.00
2024-01-14T01:33:30.625Z,17.43
2024-01-14T01:35:58.591Z,15.70
2024-01-14T01:38:26.597Z,13.70
2024-01-14T01:40:55.729Z,17.33
2024-01-14T01:43:23.488Z,14.27
2024-01-14T01:45:51.594Z,13.50
2024-01-14T01:48:20.740Z,14.60
2024-01-14T01:50:48.999Z,16.20
2024-01-14T01:53:17.592Z,15.33
2024-01-14T01:55:45.391Z,16.00
2024-01-14T01:58:14.619Z,12.43
2024-01-14T02:00:43.183Z,13.97
2024-01-14T02:03:11.368Z,11.63
2024-01-14T02:05:42.146Z,11.93
2024-01-14T02:08:10.163Z,12.23
2024-01-14T02:10:38.067Z,14.90
2024-01-14T02:13:07.064Z,12.33
2024-01-14T02:15:36.417Z,11.50
2024-01-14T02:18:04.720Z,11.63
2024-01-14T02:20:32.478Z,13.90
2024-01-14T02:23:05.354Z,12.27
2024-01-14T02:25:34.566Z,14.00
2024-01-14T02:28:02.994Z,12.97
2024-01-14T02:30:31.887Z,13.80
2024-01-14T02:32:59.841Z,12.60
2024-01-14T02:35:27.740Z,13.17
2024-01-14T02:37:56.135Z,11.43
2024-01-14T02:40:24.141Z,11.90
2024-01-14T02:42:53.258Z,12.13
2024-01-14T02:45:21.190Z,12.60
2024-01-14T02:47:49.157Z,11.43
2024-01-14T02:50:17.171Z,11.70
2024-01-14T02:52:44.999Z,13.40
2024-01-14T02:55:12.752Z,11.97
2024-01-14T02:57:40.667Z,13.03
2024-01-14T03:00:11.213Z,12.73
2024-01-14T03:02:39.864Z,14.80
2024-01-14T03:05:08.659Z,13.90
2024-01-14T03:07:36.398Z,16.93
2024-01-14T03:10:05.260Z,15.53
2024-01-14T03:12:33.125Z,15.90
2024-01-14T03:15:01.140Z,14.53
2024-01-14T03:17:30.423Z,14.30
2024-01-14T03:19:58.339Z,15.40
2024-01-14T03:22:26.253Z,15.90
2024-01-14T03:24:54.249Z,15.67
2024-01-14T03:27:22.140Z,14.30
2024-01-14T03:29:49.961Z,14.50
2024-01-14T03:32:17.755Z,16.33
2024-01-14T03:34:47.000Z,15.37
2024-01-14T03:37:14.839Z,15.47
2024-01-14T03:39:43.712Z,16.90
2024-01-14T03:42:11.657Z,16.10
2024-01-14T03:44:39.440Z,14.83
2024-01-14T03:47:07.214Z,16.07
2024-01-14T03:49:35.312Z,13.40
2024-01-14T03:52:04.764Z,13.37
2024-01-14T03:54:32.612Z,14.00
2024-01-14T03:57:00.555Z,15.80
2024-01-14T03:59:28.358Z,15.10
2024-01-14T04:01:56.224Z,14.57
2024-01-14T04:04:24.081Z,12.50
2024-01-14T04:06:52.636Z,12.63
2024-01-14T04:09:21.875Z,12.07
2024-01-14T04:11:49.722Z,12.10
2024-01-14T04:14:17.728Z,13.17
2024-01-14T04:16:45.461Z,11.57
2024-01-14T04:19:13.331Z,13.17
2024-01-14T04:21:41.190Z,13.93
2024-01-14T04:24:10.152Z,16.40
2024-01-14T04:26:39.221Z,12.37
2024-01-14T04:29:07.029Z,14.80
2024-01-14T04:31:34.812Z,11.80
2024-01-14T04:34:04.601Z,11.83
2024-01-14T04:36:32.718Z,12.07
2024-01-14T04:39:00.576Z,11.87
2024-01-14T04:41:28.341Z,12.93
2024-01-14T04:43:57.521Z,12.37
2024-01-14T04:46:25.253Z,15.13
2024-01-14T04:48:53.305Z,13.93
2024-01-14T04:51:21.623Z,14.27
2024-01-14T04:53:49.512Z,14.93
2024-01-14T04:56:17.413Z,11.87
2024-01-14T04:58:45.187Z,14.13
2024-01-14T05:01:14.395Z,13.60
2024-01-14T05:03:41.395Z,13.50
2024-01-14T05:06:09.560Z,11.93
2024-01-14T05:08:39.122Z,13.10
2024-01-14T05:11:06.983Z,11.10
2024-01-14T05:13:35.032Z,13.80
2024-01-14T05:16:02.786Z,10.70
2024-01-14T05:18:32.001Z,14.07
2024-01-14T05:21:00.004Z,12.00
2024-01-14T05:23:27.909Z,10.50
2024-01-14T05:25:55.889Z,12.30
2024-01-14T05:28:23.655Z,12.00
2024-01-14T05:30:51.472Z,11.27
2024-01-14T05:33:19.478Z,9.80
2024-01-14T05:35:48.714Z,11.30
2024-01-14T05:38:16.524Z,10.30
2024-01-14T05:40:44.344Z,10.90
2024-01-14T05:43:12.158Z,10.47
2024-01-14T05:45:40.614Z,10.10
2024-01-14T05:48:08.583Z,8.70
2024-01-14T05:50:36.579Z,9.40
2024-01-14T05:53:05.817Z,9.47
2024-01-14T05:55:33.780Z,9.37
2024-01-14T05:58:01.569Z,9.87
2024-01-14T06:00:29.609Z,10.23
2024-01-14T06:02:57.457Z,9.60
2024-01-14T06:05:25.244Z,10.53
2024-01-14T06:07:53.189Z,10.90
2024-01-14T06:10:22.336Z,10.18
2024-01-14T06:12:50.146Z,8.60
2024-01-14T06:15:18.125Z,8.70
2024-01-14T06:17:46.088Z,7.90
2024-01-14T06:20:13.936Z,10.60
2024-01-14T06:22:42.014Z,11.87
2024-01-14T06:25:10.476Z,10.20
2024-01-14T06:27:39.620Z,8.90
2024-01-14T06:30:09.217Z,11.70
2024-01-14T06:32:37.077Z,9.77
2024-01-14T06:35:05.243Z,9.30
2024-01-14T06:37:33.025Z,9.73
2024-01-14T06:40:00.808Z,13.23
2024-01-14T06:42:29.883Z,10.20
2024-01-14T06:44:58.973Z,12.83
2024-01-14T06:47:26.898Z,10.13
2024-01-14T06:50:03.829Z,8.70
2024-01-14T06:52:38.858Z,8.87
2024-01-14T06:55:07.427Z,9.70
2024-01-14T06:57:35.374Z,9.80
2024-01-14T07:00:06.261Z,10.80
2024-01-14T07:02:34.651Z,10.50
2024-01-14T07:05:04.165Z,12.10
2024-01-14T07:07:31.904Z,10.33
2024-01-14T07:09:59.962Z,12.00
2024-01-14T07:12:28.499Z,9.90
2024-01-14T07:14:56.426Z,11.30
2024-01-14T07:17:25.817Z,10.90
2024-01-14T07:19:53.730Z,11.27
2024-01-14T07:22:21.649Z,15.57
2024-01-14T07:24:49.402Z,8.80
2024-01-14T07:27:17.371Z,16.03
2024-01-14T07:29:45.261Z,9.50
2024-01-14T07:32:13.165Z,10.30
2024-01-14T07:34:42.243Z,10.37
2024-01-14T07:37:09.998Z,13.70
2024-01-14T07:39:37.745Z,15.57
2024-01-14T07:42:06.574Z,9.00
2024-01-14T07:44:34.943Z,12.80
2024-01-14T07:47:02.776Z,9.20
2024-01-14T07:49:30.574Z,10.87
2024-01-14T07:52:00.419Z,14.20
2024-01-14T07:54:28.253Z,10.90
2024-01-14T07:56:56.030Z,11.13
2024-01-14T07:59:24.396Z,13.53
2024-01-14T08:01:52.179Z,14.20
2024-01-14T08:04:20.074Z,10.70
2024-01-14T08:06:47.917Z,11.50
2024-01-14T08:09:17.103Z,14.17
2024-01-14T08:11:45.014Z,9.90
2024-01-14T08:14:12.831Z,12.77
2024-01-14T08:16:40.591Z,14.53
2024-01-14T08:19:08.749Z,11.77
2024-01-14T08:21:36.634Z,11.77
2024-01-14T08:24:05.313Z,12.30
2024-01-14T08:26:34.466Z,15.70
2024-01-14T08:29:07.377Z,14.03
2024-01-14T08:31:42.788Z,13.57
2024-01-14T08:34:10.845Z,13.73
2024-01-14T08:36:38.901Z,10.93
2024-01-14T08:39:06.775Z,12.33
2024-01-14T08:41:35.905Z,14.40
2024-01-14T08:44:07.794Z,12.30
2024-01-14T08:46:37.081Z,17.57
2024-01-14T08:49:05.029Z,11.27
2024-01-14T08:51:32.932Z,12.17
2024-01-14T08:54:02.335Z,14.90
2024-01-14T08:56:30.922Z,19.50
2024-01-14T08:59:00.420Z,12.77
2024-01-14T09:01:28.951Z,15.70
2024-01-14T09:03:57.223Z,15.97
2024-01-14T09:06:25.346Z,11.30
2024-01-14T09:08:53.260Z,13.20
2024-01-14T09:11:21.048Z,13.23
2024-01-14T09:13:50.051Z,12.50
2024-01-14T09:16:19.167Z,13.17
2024-01-14T09:18:47.018Z,12.83
2024-01-14T09:21:14.946Z,10.93
2024-01-14T09:23:42.760Z,10.80
2024-01-14T09:26:10.804Z,11.37
2024-01-14T09:28:38.903Z,10.00
2024-01-14T09:31:07.417Z,13.20
2024-01-14T09:33:37.020Z,12.93
2024-01-14T09:36:10.091Z,9.00
2024-01-14T09:38:39.327Z,10.70
2024-01-14T09:41:14.983Z,9.47
2024-01-14T09:43:50.962Z,10.07
2024-01-14T09:46:18.998Z,10.23
2024-01-14T09:48:49.754Z,14.80
2024-01-14T09:51:19.731Z,13.17
2024-01-14T09:53:48.411Z,11.60
2024-01-14T09:56:17.413Z,12.30
2024-01-14T09:58:47.065Z,13.07
2024-01-14T10:01:18.604Z,10.53
2024-01-14T10:03:48.039Z,12.77
2024-01-14T10:06:16.065Z,13.30
2024-01-14T10:08:44.037Z,12.93
2024-01-14T10:11:11.851Z,13.67
2024-01-14T10:13:40.163Z,12.27
2024-01-14T10:16:49.281Z,13.00
2024-01-14T10:18:57.982Z,12.00
2024-01-14T10:21:27.190Z,11.63
2024-01-14T10:23:57.274Z,13.57
2024-01-14T10:26:25.261Z,13.90
2024-01-14T10:28:53.161Z,14.20
2024-01-14T10:31:21.028Z,14.53
2024-01-14T10:33:49.838Z,15.60
2024-01-14T10:36:19.261Z,13.33
2024-01-14T10:38:47.121Z,15.07
2024-01-14T10:41:14.918Z,14.50
2024-01-14T10:43:42.708Z,13.10
2024-01-14T10:46:11.564Z,12.43
2024-01-14T10:48:41.457Z,12.20
2024-01-14T10:51:12.251Z,13.93
2024-01-14T10:53:50.227Z,14.17
2024-01-14T10:56:21.339Z,13.10
2024-01-14T10:58:54.398Z,13.77
2024-01-14T11:01:25.671Z,11.83
2024-01-14T11:03:56.484Z,15.30
2024-01-14T11:06:26.494Z,12.13
2024-01-14T11:08:55.679Z,15.80
2024-01-14T11:11:30.055Z,11.90
2024-01-14T11:14:02.397Z,14.47
2024-01-14T11:16:38.089Z,16.90
2024-01-14T11:19:21.254Z,17.57
2024-01-14T11:22:21.322Z,11.67
2024-01-14T11:24:58.147Z,12.87
2024-01-14T11:27:26.176Z,12.67
2024-01-14T11:29:54.033Z,14.47
2024-01-14T11:32:24.772Z,14.10
2024-01-14T11:34:53.112Z,13.10
2024-01-14T11:37:39.034Z,12.17
2024-01-14T11:40:29.706Z,12.97
2024-01-14T11:43:09.922Z,11.43
2024-01-14T11:45:42.111Z,12.87
2024-01-14T11:48:13.712Z,11.37
2024-01-14T11:50:42.446Z,11.47
2024-01-14T11:53:10.551Z,14.10
2024-01-14T11:55:40.588Z,12.53
2024-01-14T11:58:12.576Z,13.30
2024-01-14T12:00:41.637Z,11.63
2024-01-14T12:03:11.045Z,14.60
2024-01-14T12:05:40.786Z,13.33
2024-01-14T12:08:09.358Z,12.20
2024-01-14T12:10:37.309Z,13.57
2024-01-14T12:13:08.946Z,15.57
2024-01-14T12:15:38.694Z,13.50
2024-01-14T12:18:08.296Z,11.33
2024-01-14T12:20:36.719Z,12.40
2024-01-14T12:23:07.118Z,11.30
2024-01-14T12:25:38.908Z,13.90
2024-01-14T12:28:08.114Z,12.50
2024-01-14T12:30:37.857Z,13.67
2024-01-14T12:33:07.349Z,14.83
2024-01-14T12:35:36.777Z,11.40
2024-01-14T12:38:05.980Z,12.47
2024-01-14T12:40:33.974Z,15.60
2024-01-14T12:43:02.457Z,12.07
2024-01-14T12:45:31.618Z,16.00
2024-01-14T12:48:04.002Z,12.20
2024-01-14T12:50:35.204Z,11.27
2024-01-14T12:53:04.722Z,12.10
2024-01-14T12:55:32.708Z,10.37
2024-01-14T12:58:02.158Z,10.40
2024-01-14T13:00:32.311Z,12.70
2024-01-14T13:03:00.666Z,12.63
2024-01-14T13:05:28.745Z,12.27
2024-01-14T13:07:56.578Z,10.40
2024-01-14T13:10:24.385Z,10.73
2024-01-14T13:12:52.450Z,11.10
2024-01-14T13:15:20.634Z,12.17
2024-01-14T13:17:49.864Z,10.50
2024-01-14T13:20:17.801Z,12.70
2024-01-14T13:22:45.613Z,10.20
2024-01-14T13:25:14.230Z,12.40
2024-01-14T13:27:42.255Z,14.50
2024-01-14T13:30:11.653Z,13.23
2024-01-14T13:32:40.402Z,10.20
2024-01-14T13:35:11.742Z,9.60
2024-01-14T13:37:39.906Z,12.10
2024-01-14T13:40:08.923Z,11.00
2024-01-14T13:42:39.245Z,8.80
2024-01-14T13:45:10.923Z,11.43
2024-01-14T13:47:39.040Z,8.87
2024-01-14T13:50:09.234Z,8.67
2024-01-14T13:52:37.183Z,8.40
2024-01-14T13:55:05.820Z,9.50
2024-01-14T13:57:33.704Z,10.57
2024-01-14T14:00:01.702Z,9.27
2024-01-14T14:02:29.776Z,9.87
2024-01-14T14:05:07.493Z,8.37
2024-01-14T14:07:40.029Z,9.00
2024-01-14T14:10:09.842Z,9.47
2024-01-14T14:12:37.889Z,9.90
2024-01-14T14:15:06.806Z,9.97
2024-01-14T14:17:34.832Z,9.13
2024-01-14T14:20:03.236Z,10.20
2024-01-14T14:22:31.240Z,9.97
2024-01-14T14:25:00.406Z,9.93
2024-01-14T14:27:28.440Z,8.93
2024-01-14T14:29:56.405Z,8.57
2024-01-14T14:32:24.531Z,8.27
2024-01-14T14:34:52.604Z,9.60
2024-01-14T14:37:20.546Z,9.60
2024-01-14T14:39:48.536Z,8.47
2024-01-14T14:42:17.763Z,9.30
2024-01-14T14:44:45.580Z,9.70
2024-01-14T14:47:13.662Z,10.20
2024-01-14T14:49:41.463Z,8.30
2024-01-14T14:52:09.343Z,8.57
2024-01-14T14:54:38.326Z,9.10
2024-01-14T14:57:06.576Z,8.13
2024-01-14T14:59:35.825Z,8.60
2024-01-14T15:02:03.794Z,9.80
2024-01-14T15:04:31.912Z,8.90
2024-01-14T15:07:00.211Z,8.80
2024-01-14T15:09:28.113Z,9.23
2024-01-14T15:11:55.951Z,8.53
2024-01-14T15:14:23.942Z,9.00
2024-01-14T15:16:53.678Z,7.73
2024-01-14T15:19:21.581Z,8.27
2024-01-14T15:21:52.573Z,12.60
2024-01-14T15:24:20.532Z,8.17
2024-01-14T15:26:48.367Z,8.80
2024-01-14T15:29:16.254Z,9.07
2024-01-14T15:31:44.186Z,9.70
2024-01-14T15:34:13.753Z,9.47
2024-01-14T15:36:42.450Z,8.40
2024-01-14T15:39:11.728Z,8.87
2024-01-14T15:41:45.158Z,11.30
2024-01-14T15:44:13.127Z,11.10
2024-01-14T15:46:41.015Z,9.73
2024-01-14T15:49:09.073Z,9.97
2024-01-14T15:51:39.080Z,10.67
2024-01-14T15:54:07.727Z,10.43
2024-01-14T15:56:35.860Z,10.40
2024-01-14T15:59:04.167Z,12.13
2024-01-14T16:01:32.330Z,11.43
2024-01-14T16:04:01.037Z,12.40
2024-01-14T16:06:29.106Z,11.27
2024-01-14T16:08:58.323Z,10.37
2024-01-14T16:11:26.852Z,11.80
2024-01-14T16:13:54.703Z,9.93
2024-01-14T16:16:22.512Z,25.40
2024-01-14T16:18:50.868Z,13.30
2024-01-14T16:21:19.842Z,13.80
2024-01-14T16:23:47.694Z,13.87
2024-01-14T16:26:16.826Z,11.60
2024-01-14T16:28:44.646Z,10.90
2024-01-14T16:31:14.454Z,9.63
2024-01-14T16:33:44.492Z,10.60
2024-01-14T16:36:14.229Z,9.50
2024-01-14T16:38:42.233Z,10.27
2024-01-14T16:41:10.521Z,12.10
2024-01-14T16:43:40.072Z,11.80
2024-01-14T16:46:08.023Z,12.10
2024-01-14T16:48:36.377Z,11.50
2024-01-14T16:51:09.245Z,12.70
2024-01-14T16:53:40.119Z,11.43
2024-01-14T16:56:08.632Z,11.27
2024-01-14T16:58:36.625Z,10.10
2024-01-14T17:01:14.988Z,11.43
2024-01-14T17:03:47.206Z,11.53
2024-01-14T17:06:17.010Z,11.10
2024-01-14T17:08:46.497Z,10.17
2024-01-14T17:11:15.706Z,9.70
2024-01-14T17:13:44.038Z,9.97
2024-01-14T17:16:23.137Z,10.90
2024-01-14T17:18:52.534Z,14.03
2024-01-14T17:21:20.581Z,14.00
2024-01-14T17:23:49.065Z,13.70
2024-01-14T17:26:17.660Z,14.90
2024-01-14T17:28:46.220Z,13.63
2024-01-14T17:31:16.054Z,13.17
2024-01-14T17:33:48.066Z,12.60
2024-01-14T17:36:18.256Z,14.90
2024-01-14T17:38:49.364Z,14.00
2024-01-14T17:41:17.385Z,16.23
2024-01-14T17:43:45.442Z,15.60
2024-01-14T17:46:13.451Z,17.63
2024-01-14T17:48:44.311Z,14.57
2024-01-14T17:51:14.512Z,16.40
2024-01-14T17:53:43.257Z,16.13
2024-01-14T17:56:13.671Z,16.50
2024-01-14T17:58:41.696Z,15.77
2024-01-14T18:01:10.685Z,18.50
2024-01-14T18:03:40.513Z,15.70
2024-01-14T18:06:09.245Z,16.53
2024-01-14T18:08:38.781Z,15.07
2024-01-14T18:11:06.693Z,18.27
2024-01-14T18:13:34.551Z,14.13
2024-01-14T18:16:02.564Z,15.90
2024-01-14T18:18:30.508Z,16.50
2024-01-14T18:20:58.682Z,15.87
2024-01-14T18:23:26.808Z,13.37
2024-01-14T18:25:55.940Z,16.53
2024-01-14T18:28:23.796Z,13.10
2024-01-14T18:30:51.852Z,14.70
2024-01-14T18:33:19.891Z,17.17
2024-01-14T18:35:48.028Z,13.80
2024-01-14T18:38:16.521Z,16.03
2024-01-14T18:40:45.611Z,13.93
2024-01-14T18:43:16.559Z,14.30
2024-01-14T18:45:44.492Z,17.40
2024-01-14T18:48:12.520Z,14.40
2024-01-14T18:50:40.942Z,14.40
2024-01-14T18:53:08.861Z,14.88
2024-01-14T18:55:38.446Z,16.20
2024-01-14T18:58:06.704Z,12.30
2024-01-14T19:00:35.968Z,14.50
2024-01-14T19:03:04.632Z,13.50
2024-01-14T19:05:33.285Z,12.43
2024-01-14T19:08:01.512Z,13.63
2024-01-14T19:10:29.381Z,12.17
2024-01-14T19:12:58.922Z,11.70
2024-01-14T19:15:27.300Z,11.10
2024-01-14T19:17:56.600Z,11.23
2024-01-14T19:20:24.502Z,12.70
2024-01-14T19:22:52.406Z,13.80
2024-01-14T19:25:20.630Z,16.10
2024-01-14T19:27:49.146Z,20.63
2024-01-14T19:30:17.952Z,16.73
2024-01-14T19:32:46.045Z,15.10
2024-01-14T19:35:15.398Z,23.20
2024-01-14T19:37:43.213Z,15.97
2024-01-14T19:40:12.188Z,16.93
2024-01-14T19:42:40.265Z,16.27
2024-01-14T19:45:08.824Z,17.47
2024-01-14T19:47:37.271Z,16.73
2024-01-14T19:50:05.890Z,15.30
2024-01-14T19:52:35.023Z,13.70
2024-01-14T19:55:03.175Z,13.37
2024-01-14T19:57:31.015Z,13.90
2024-01-14T19:59:58.838Z,12.73
2024-01-14T20:02:26.662Z,12.97
2024-01-14T20:04:54.491Z,12.67
2024-01-14T20:07:22.363Z,12.93
2024-01-14T20:09:51.503Z,11.60
2024-01-14T20:12:19.318Z,12.67
2024-01-14T20:14:47.444Z,13.10
2024-01-14T20:17:15.462Z,12.90
2024-01-14T20:19:43.449Z,13.47
2024-01-14T20:22:11.523Z,11.90
2024-01-14T20:24:40.159Z,12.07
2024-01-14T20:27:09.548Z,10.80
2024-01-14T20:29:37.638Z,12.03
2024-01-14T20:32:05.929Z,12.13
2024-01-14T20:34:34.113Z,12.80
2024-01-14T20:37:02.477Z,11.20
2024-01-14T20:39:32.381Z,10.47
2024-01-14T20:42:03.648Z,12.07
2024-01-14T20:44:32.849Z,10.27
2024-01-14T20:47:02.425Z,11.50
2024-01-14T20:49:31.867Z,12.70
2024-01-14T20:52:00.620Z,13.03
2024-01-14T20:54:28.617Z,11.53
2024-01-14T20:56:56.683Z,15.83
2024-01-14T20:59:24.840Z,12.70
2024-01-14T21:01:54.279Z,14.07
2024-01-14T21:04:22.396Z,12.77
2024-01-14T21:06:50.455Z,13.03
2024-01-14T21:09:18.520Z,13.60
2024-01-14T21:11:46.368Z,13.90
2024-01-14T21:14:16.160Z,13.83
2024-01-14T21:16:44.897Z,13.20
2024-01-14T21:19:14.448Z,15.23
2024-01-14T21:21:42.389Z,15.10
2024-01-14T21:24:10.284Z,17.30
2024-01-14T21:26:38.109Z,14.07
2024-01-14T21:29:06.163Z,16.50
2024-01-14T21:31:33.975Z,15.60
2024-01-14T21:34:01.922Z,15.90
2024-01-14T21:36:31.143Z,14.80
2024-01-14T21:38:58.997Z,16.40
2024-01-14T21:41:26.886Z,14.60
2024-01-14T21:43:54.647Z,15.57
2024-01-14T21:46:22.602Z,12.70
2024-01-14T21:48:51.168Z,14.00
2024-01-14T21:51:21.675Z,18.03
2024-01-14T21:53:51.353Z,15.03
2024-01-14T21:56:19.697Z,14.93
2024-01-14T21:58:47.574Z,13.30
2024-01-14T22:01:15.445Z,15.20
2024-01-14T22:03:43.498Z,17.07
2024-01-14T22:06:11.680Z,13.43
2024-01-14T22:08:39.462Z,16.20
2024-01-14T22:11:08.732Z,15.07
2024-01-14T22:13:39.513Z,16.30
2024-01-14T22:16:07.426Z,13.80
2024-01-14T22:18:36.198Z,14.20
2024-01-14T22:21:04.378Z,13.60
2024-01-14T22:23:32.220Z,14.70
2024-01-14T22:26:00.303Z,16.10
2024-01-14T22:28:29.896Z,13.50
2024-01-14T22:30:58.262Z,17.60
2024-01-14T22:33:26.309Z,15.20
2024-01-14T22:35:56.473Z,15.37
2024-01-14T22:38:25.910Z,17.33
2024-01-14T22:40:53.770Z,13.00
2024-01-14T22:43:21.666Z,12.67
2024-01-14T22:45:50.802Z,12.70
2024-01-14T22:48:18.952Z,12.37
2024-01-14T22:50:47.010Z,15.03
2024-01-14T22:53:15.544Z,12.23
2024-01-14T22:55:43.663Z,13.57
2024-01-14T22:58:11.442Z,17.17
2024-01-14T23:00:41.905Z,12.37
2024-01-14T23:03:11.302Z,12.63
2024-01-14T23:05:39.140Z,12.63
2024-01-14T23:08:07.547Z,13.70
2024-01-14T23:10:35.699Z,11.13
2024-01-14T23:13:04.474Z,14.33
2024-01-14T23:15:32.326Z,14.60
2024-01-14T23:18:01.193Z,13.17
2024-01-14T23:20:31.400Z,12.60
2024-01-14T23:22:59.180Z,13.00
2024-01-14T23:25:27.099Z,13.40
2024-01-14T23:27:55.007Z,12.80
2024-01-14T23:30:23.245Z,14.03
2024-01-14T23:32:51.232Z,13.57
2024-01-14T23:35:19.372Z,14.80
2024-01-14T23:37:48.597Z,15.10
2024-01-14T23:40:16.833Z,16.13
2024-01-14T23:42:44.840Z,15.97
2024-01-14T23:45:16.186Z,13.90
2024-01-14T23:47:44.091Z,16.23
2024-01-14T23:50:12.105Z,13.07
2024-01-14T23:52:40.057Z,17.30
2024-01-14T23:55:09.960Z,17.07
2024-01-14T23:57:37.838Z,14.73
